Flight Track Log - Related Links

Times and Time Zones

All times are in EDT time to prevent confusion due to time zone crossing. See the RPA3152 flight status page for this flight to view local times or setup timezone preferences in your user account.

Time Position Orientation Groundspeed Altitude Reporting Facility
EDT Latitude Longitude Course Direction KTS MPH feet Rate Location/Type
Wed 05:51:20 PM 29.9950 -90.2867 283° West 166 191 400  Level Houston Center
Wed 05:52:15 PM 30.0058 -90.3394 360° North 188 216 1,700 1,897 Climbing Houston Center
Wed 05:54:14 PM 30.1186 -90.3403 53° Northeast 260 299 5,900 2,279 Climbing Houston Center
Wed 05:55:14 PM 30.1658 -90.2678 54° Northeast 253 291 8,500 2,500 Climbing Houston Center
Wed 05:56:14 PM 30.2131 -90.1925 54° Northeast 264 304 10,900 2,400 Climbing Houston Center
Wed 05:57:14 PM 30.2603 -90.1172 55° Northeast 282 325 13,300 2,350 Climbing Houston Center
Wed 05:58:14 PM 30.3136 -90.0300 57° Northeast 289 333 15,600 2,250 Climbing Houston Center
Wed 05:59:14 PM 30.3606 -89.9450 60° Northeast 302 348 17,800 2,200 Climbing Houston Center
Wed 06:00:14 PM 30.4072 -89.8528 61° Northeast 314 361 20,000 2,000 Climbing Houston Center
Wed 06:01:14 PM 30.4539 -89.7531 60° Northeast 340 391 21,800 1,600 Climbing Houston Center
Wed 06:02:14 PM 30.5047 -89.6508 62° Northeast 352 405 23,200 1,400 Climbing Houston Center
Wed 06:03:14 PM 30.5531 -89.5461 61° Northeast 357 411 24,600 1,400 Climbing Houston Center
Wed 06:04:14 PM 30.6036 -89.4414 62° Northeast 362 417 26,000 1,200 Climbing Houston Center
Wed 06:05:14 PM 30.6519 -89.3342 62° Northeast 362 417 27,000 1,000 Climbing Houston Center
Wed 06:06:14 PM 30.7042 -89.2219 68° East 376 433 28,000 1,000 Climbing Houston Center
Wed 06:07:14 PM 30.7478 -89.0975 72° East 388 447 29,000 1,000 Climbing Houston Center
Wed 06:08:14 PM 30.7828 -88.9686 74° East 408 470 30,000 950 Climbing Houston Center
Wed 06:09:14 PM 30.8117 -88.8494 72° East 420 483 30,900 950 Climbing Houston Center
Wed 06:10:14 PM 30.8486 -88.7131 62° Northeast 425 489 31,900 950 Climbing Houston Center
Wed 06:11:14 PM 30.9122 -88.5756 55° Northeast 429 494 32,800 800 Climbing Houston Center
Wed 06:12:14 PM 30.9844 -88.4572 57° Northeast 436 502 33,500 550 Climbing Houston Center
Wed 06:13:14 PM 31.0525 -88.3364 54° Northeast 442 509 33,900 450 Climbing Houston Center
Wed 06:14:14 PM 31.1267 -88.2150 56° Northeast 452 520 34,400 450 Climbing Houston Center
Wed 06:15:14 PM 31.2006 -88.0864 55° Northeast 457 526 34,800 300 Climbing Houston Center
Wed 06:16:14 PM 31.2783 -87.9572 55° Northeast 474 545 35,000 82 Climbing Houston Center
Wed 06:17:41 PM 31.3831 -87.7822 55° Northeast 475 547 35,000  Level Atlanta Center
Wed 06:18:41 PM 31.4600 -87.6539 53° Northeast 475 547 35,000  Level Atlanta Center
Wed 06:19:41 PM 31.5386 -87.5303 46° Northeast 475 547 35,000  Level Atlanta Center
Wed 06:20:53 PM 31.6272 -87.4217 48° Northeast 467 537 35,000  Level Atlanta Center
Wed 06:21:53 PM 31.7442 -87.2697 46° Northeast 467 537 35,000  Level Atlanta Center
Wed 06:22:53 PM 31.8344 -87.1581 42° Northeast 467 537 35,000  Level Atlanta Center
Wed 06:23:53 PM 31.9183 -87.0681 41° Northeast 467 537 35,000  Level Atlanta Center
Wed 06:24:53 PM 32.0167 -86.9683 42° Northeast 461 531 35,000  Level Atlanta Center
Wed 06:25:53 PM 32.1172 -86.8614 52° Northeast 466 536 35,000  Level Atlanta Center
Wed 06:26:53 PM 32.1972 -86.7386 50° Northeast 471 542 35,000  Level Atlanta Center
Wed 06:27:53 PM 32.2833 -86.6161 53° Northeast 477 549 35,000  Level Atlanta Center
Wed 06:29:05 PM 32.3803 -86.4639 58° Northeast 477 549 35,000  Level Atlanta Center
Wed 06:30:05 PM 32.4561 -86.3208 52° Northeast 478 550 35,000  Level Atlanta Center
Wed 06:31:05 PM 32.5419 -86.1900 54° Northeast 478 550 35,000  Level Atlanta Center
Wed 06:32:05 PM 32.6233 -86.0586 55° Northeast 492 566 35,000  Level Atlanta Center
Wed 06:33:05 PM 32.6986 -85.9297 53° Northeast 492 566 35,000  Level Atlanta Center
Wed 06:34:05 PM 32.7797 -85.8028 54° Northeast 484 557 35,000  Level Atlanta Center
Wed 06:35:05 PM 32.8567 -85.6758 55° Northeast 484 557 35,000  Level Atlanta Center
Wed 06:36:05 PM 32.9269 -85.5583 54° Northeast 484 557 35,000  Level Atlanta Center
Wed 06:37:05 PM 33.0036 -85.4308 52° Northeast 479 551 35,000  Level Atlanta Center
Wed 06:38:05 PM 33.0842 -85.3081 56° Northeast 474 545 35,000  Level Atlanta Center
Wed 06:39:17 PM 33.1586 -85.1753 53° Northeast 474 545 35,000  Level Atlanta Center
Wed 06:40:17 PM 33.2517 -85.0250 54° Northeast 474 545 35,000  Level Atlanta Center
Wed 06:41:17 PM 33.3322 -84.8917 55° Northeast 474 545 35,000  Level Atlanta Center
Wed 06:42:17 PM 33.4081 -84.7606 54° Northeast 479 551 35,000  Level Atlanta Center
Wed 06:43:17 PM 33.4881 -84.6292 55° Northeast 479 551 35,000  Level Atlanta Center
Wed 06:44:17 PM 33.5639 -84.4975 55° Northeast 479 551 35,000  Level Atlanta Center
Wed 06:45:29 PM 33.6478 -84.3533 54° Northeast 485 558 35,000  Level Atlanta Center
Wed 06:46:29 PM 33.7442 -84.1911 54° Northeast 480 552 35,000  Level Atlanta Center
Wed 06:47:29 PM 33.8233 -84.0589 54° Northeast 487 560 35,000  Level Atlanta Center
Wed 06:48:29 PM 33.9028 -83.9261 56° Northeast 487 560 35,000  Level Atlanta Center
Wed 06:49:29 PM 33.9694 -83.8058 55° Northeast 487 560 35,000  Level Atlanta Center
Wed 06:50:29 PM 34.0317 -83.6978 54° Northeast 487 560 35,000 50 Level Atlanta Center
Wed 06:51:29 PM 34.1272 -83.5394 56° Northeast 493 567 35,100 250 Climbing Atlanta Center
Wed 06:52:29 PM 34.2039 -83.4033 56° Northeast 487 560 35,500 550 Climbing Atlanta Center
Wed 06:53:29 PM 34.2822 -83.2644 56° Northeast 494 568 36,200 700 Climbing Atlanta Center
Wed 06:54:29 PM 34.3586 -83.1278 55° Northeast 489 563 36,900 364 Climbing Atlanta Center
Wed 06:55:41 PM 34.4389 -82.9911 55° Northeast 489 563 37,000 45 Climbing Atlanta Center
Wed 06:56:41 PM 34.5333 -82.8258 57° Northeast 494 568 37,000  Level Atlanta Center
Wed 06:57:41 PM 34.6092 -82.6861 55° Northeast 494 568 37,000  Level Atlanta Center
Wed 06:58:41 PM 34.6972 -82.5356 56° Northeast 494 568 37,000  Level Atlanta Center
Wed 06:59:41 PM 34.7744 -82.3950 56° Northeast 494 568 37,000  Level Atlanta Center
Wed 07:00:53 PM 34.8519 -82.2544 55° Northeast 494 568 37,000  Level Atlanta Center
Wed 07:01:53 PM 34.9414 -82.1003 56° Northeast 499 574 37,000  Level Atlanta Center
Wed 07:02:53 PM 35.0183 -81.9592 57° Northeast 499 574 37,000  Level Atlanta Center
Wed 07:04:05 PM 35.1011 -81.8047 57° Northeast 499 574 37,000  Level Atlanta Center
Wed 07:05:05 PM 35.1858 -81.6422 57° Northeast 499 574 37,000  Level Atlanta Center
Wed 07:06:05 PM 35.2600 -81.5003 58° Northeast 505 581 37,000  Level Atlanta Center
Wed 07:07:05 PM 35.3342 -81.3556 57° Northeast 499 574 37,000  Level Atlanta Center
Wed 07:08:05 PM 35.4083 -81.2128 58° Northeast 499 574 37,000 -200 Level Atlanta Center
Wed 07:09:05 PM 35.4819 -81.0675 56° Northeast 499 574 36,600 -550 Descending Atlanta Center
Wed 07:10:05 PM 35.5578 -80.9269 57° Northeast 499 574 35,900 -800 Descending Atlanta Center
Wed 07:11:05 PM 35.6314 -80.7861 58° Northeast 493 567 35,000 -850 Descending Atlanta Center
Wed 07:12:05 PM 35.6986 -80.6556 58° Northeast 469 540 34,200 -900 Descending Atlanta Center
Wed 07:13:05 PM 35.7700 -80.5144 58° Northeast 454 522 33,200 -398 Descending Atlanta Center
Wed 07:15:06 PM 35.9003 -80.2589 58° Northeast 441 507 33,000 -66 Descending Washington Center
Wed 07:16:06 PM 35.9656 -80.1319 57° Northeast 441 507 33,000  Level Washington Center
Wed 07:17:07 PM 36.0286 -80.0097 54° Northeast 431 496 33,000  Level Washington Center
Wed 07:18:07 PM 36.0997 -79.8878 56° Northeast 438 504 33,000  Level Washington Center
Wed 07:19:07 PM 36.1692 -79.7578 54° Northeast 438 504 33,000  Level Washington Center
Wed 07:20:05 PM 36.2311 -79.6503 56° Northeast 438 504 33,000  Level Washington Center
Wed 07:21:06 PM 36.3067 -79.5125 54° Northeast 433 498 33,000 -347 Level Washington Center
Wed 07:22:06 PM 36.3797 -79.3869 55° Northeast 438 504 32,300 -1,100 Descending Washington Center
Wed 07:23:06 PM 36.4458 -79.2689 56° Northeast 432 497 30,800 -1,686 Descending Washington Center
Wed 07:24:07 PM 36.5078 -79.1556 54° Northeast 432 497 28,900 -1,916 Descending Washington Center
Wed 07:25:05 PM 36.5758 -79.0369 55° Northeast 423 487 27,000 -1,966 Descending Washington Center
Wed 07:26:06 PM 36.6397 -78.9233 57° Northeast 411 473 25,000 -984 Descending Washington Center
Wed 07:27:07 PM 36.7014 -78.8069 56° Northeast 405 466 25,000  Level Washington Center
Wed 07:28:05 PM 36.7692 -78.6825 55° Northeast 393 452 25,000  Level Washington Center
Wed 07:29:07 PM 36.8306 -78.5733 57° Northeast 387 445 25,000  Level Washington Center
Wed 07:30:07 PM 36.8894 -78.4614 55° Northeast 387 445 25,000  Level Washington Center
Wed 07:31:05 PM 36.9483 -78.3572 56° Northeast 396 456 25,000 -712 Level Washington Center
Wed 07:32:05 PM 37.0069 -78.2475 56° Northeast 391 450 23,600 -1,475 Descending Washington Center
Wed 07:33:07 PM 37.0722 -78.1272 57° Northeast 391 450 22,000 -800 Descending Washington Center
Wed 07:34:05 PM 37.1286 -78.0197 55° Northeast 378 435 22,000  Level Washington Center
Wed 07:35:05 PM 37.1894 -77.9094 56° Northeast 372 428 22,000  Level Washington Center
Wed 07:36:06 PM 37.2478 -77.8017 57° Northeast 372 428 22,000  Level Washington Center
Wed 07:37:06 PM 37.3039 -77.6936 45° Northeast 372 428 22,000  Level Washington Center
Wed 07:38:06 PM 37.3786 -77.5992 20° North 372 428 22,000  Level Washington Center
Wed 07:39:06 PM 37.4772 -77.5544 20° North 363 418 22,000 -446 Level Washington Center
Wed 07:40:07 PM 37.5739 -77.5100 21° North 358 412 21,100 -1,160 Descending Washington Center
Wed 07:41:05 PM 37.6686 -77.4650 22° Northeast 358 412 19,700 -1,412 Descending Washington Center
Wed 07:42:06 PM 37.7569 -77.4200 22° Northeast 351 404 18,300 -1,388 Descending Washington Center
Wed 07:43:06 PM 37.8472 -77.3747 21° North 351 404 16,900 -1,339 Descending Washington Center
Wed 07:44:07 PM 37.9250 -77.3372 20° North 340 391 15,600 -1,240 Descending Washington Center
Wed 07:45:07 PM 38.0089 -77.2994 23° Northeast 329 379 14,400 -1,271 Descending Washington Center
Wed 07:46:05 PM 38.0950 -77.2539 21° North 317 365 13,100 -1,200 Descending Washington Center
Wed 07:47:07 PM 38.1664 -77.2186 20° North 294 338 12,000 -1,100 Descending Washington Center
Wed 07:48:05 PM 38.2378 -77.1858 22° Northeast 275 316 10,900 -1,000 Descending Washington Center
Wed 07:49:07 PM 38.3069 -77.1503 20° North 263 303 10,000 -836 Descending Washington Center
Wed 07:50:07 PM 38.3742 -77.1197 18° North 263 303 9,200 -1,068 Descending Washington Center
Wed 07:51:05 PM 38.4350 -77.0944 18° North 263 303 7,900 -1,462 Descending Washington Center
Wed 07:52:06 PM 38.5000 -77.0667 19° North 251 289 6,300 -1,525 Descending Washington Center
Wed 07:53:07 PM 38.5647 -77.0386 17° North 246 283 4,800 -1,289 Descending Washington Center
Wed 07:54:07 PM 38.6214 -77.0158 359° North 233 268 3,700 -1,129 Descending Washington Center
Wed 07:54:48 PM 38.6667 -77.0167 360° North 185 213 2,900 -713 Descending Potomac TRACON
Wed 07:55:48 PM 38.7167 -77.0167 339° North 151 174 2,500 -524 Descending Potomac TRACON
Wed 07:56:54 PM 38.7500 -77.0333 360° North 148 170 1,800 -714 Descending Potomac TRACON
Wed 07:57:54 PM 38.7833 -77.0333 360° North 129 148 1,000 -737 Descending Potomac TRACON
Wed 07:58:48 PM 38.8333 -77.0333 191° South 134 154 400 -667 Descending Potomac TRACON
Wed 08:06:32 PM 37.9261 -77.2575 191° South  Level FlightAware Approximate

Login

Don't have an account? Register now (free) for customized features, flight alerts, and more!